Kalamazoo Battle Creek International Airport
KAZO : now visible

Aeroporto :











RITROVATECI SU...

 
LOGIN :

Iscrizione | Disclaimer

   EN    FR    IT 

 









Sommario :    VFR   VFR Marginale   IFR   IFR Intensivo   IFR Molto Intensivo
Visibilità : 
Base nubi : 
>= 8 km
>= 3000ft
5 / 8 km
1000 / 3000 ft
1500m / 5 km
500 / 1000 ft
800 / 1500m
200 / 500 ft
< 800m
< 200 ft
Simboli :   Temporali  Nebbia  Neve Forte  Precipitazioni Forti  Vento > 20 kt






- Altitudine del aeroporto : 874 ft
- Codice IATA : AZO


KAZO - Kalamazoo Battle Creek International

ULTIMO METAR :
  • 040253Z 11003KT 10SM SCT100 10/02 A3003 RMK AO2 SLP171 T01000022 50005

METARs OBSOLETI :
  • 040153Z 00000KT 10SM CLR 12/02 A3003 RMK AO2 SLP172 T01220017
  • 040053Z 00000KT 10SM CLR 14/01 A3003 RMK AO2 SLP170 T01440006

TAF KAZO
Valido dal 04 a 00 ore il 05 a 00 ore UTC


032340Z 0400/0424 VRB03KT P6SM SCT080
FM041500 28008KT 6SM BR VCSH OVC020
FM041800 30009KT 6SM BR OVC012
FM042000 30011G20KT P6SM BKN025
FM042300 31009KT P6SM SCT050



MetMap, La meteo Aeronautica in un colpo d'occhio ! - Copyright ORBIFLY Dicembre 2007 - Disclaimer

ORBIFLY MET'MAP TEAM :

Programmazione e sviluppo : Alexandra Zaïnal
Concezione : Baudouin d'Aumeries
Aiuto per la programmazione : Marc-Olivier Méhu
Supporto tecnico e logistico : Manuel Goepfert
Aiuto per la traduzione : Arnaldo La Scala

Contatto : metmap@orbifly.com




FONTI E CREDITI :

   NOAA       Earth
Advisory